sensor_id;sensor_type;location;lat;lon;timestamp;P1;durP1;ratioP1;P2;durP2;ratioP2
75843;SDS011;64492;51.270;3.912;2022-12-07T00:01:23;2.50;;;1.13;;
75843;SDS011;64492;51.270;3.912;2022-12-07T00:03:52;3.25;;;1.45;;
75843;SDS011;64492;51.270;3.912;2022-12-07T00:06:20;4.13;;;1.60;;
75843;SDS011;64492;51.270;3.912;2022-12-07T00:08:46;2.50;;;1.15;;
75843;SDS011;64492;51.270;3.912;2022-12-07T00:11:15;2.60;;;1.48;;
75843;SDS011;64492;51.270;3.912;2022-12-07T00:13:43;2.72;;;1.40;;
75843;SDS011;64492;51.270;3.912;2022-12-07T00:16:11;2.80;;;1.33;;
75843;SDS011;64492;51.270;3.912;2022-12-07T00:18:39;2.22;;;1.30;;
75843;SDS011;64492;51.270;3.912;2022-12-07T00:21:06;4.47;;;1.40;;
75843;SDS011;64492;51.270;3.912;2022-12-07T00:23:35;2.50;;;1.20;;
75843;SDS011;64492;51.270;3.912;2022-12-07T00:26:04;2.40;;;1.30;;
75843;SDS011;64492;51.270;3.912;2022-12-07T00:28:33;2.65;;;1.15;;
75843;SDS011;64492;51.270;3.912;2022-12-07T00:31:00;1.92;;;1.20;;
75843;SDS011;64492;51.270;3.912;2022-12-07T00:33:28;2.70;;;1.15;;
75843;SDS011;64492;51.270;3.912;2022-12-07T00:35:55;1.88;;;1.23;;
75843;SDS011;64492;51.270;3.912;2022-12-07T00:38:22;2.30;;;1.10;;
75843;SDS011;64492;51.270;3.912;2022-12-07T00:40:53;2.33;;;1.20;;
75843;SDS011;64492;51.270;3.912;2022-12-07T00:43:20;2.40;;;1.10;;
75843;SDS011;64492;51.270;3.912;2022-12-07T00:45:48;2.50;;;1.00;;
75843;SDS011;64492;51.270;3.912;2022-12-07T00:48:15;2.55;;;1.00;;
75843;SDS011;64492;51.270;3.912;2022-12-07T00:50:41;3.28;;;1.20;;
75843;SDS011;64492;51.270;3.912;2022-12-07T00:53:07;2.03;;;1.20;;
75843;SDS011;64492;51.270;3.912;2022-12-07T00:55:34;2.15;;;1.00;;
75843;SDS011;64492;51.270;3.912;2022-12-07T00:58:01;2.30;;;1.02;;
75843;SDS011;64492;51.270;3.912;2022-12-07T01:00:27;2.65;;;0.80;;
75843;SDS011;64492;51.270;3.912;2022-12-07T01:02:55;1.83;;;0.95;;
75843;SDS011;64492;51.270;3.912;2022-12-07T01:05:22;2.03;;;0.98;;
75843;SDS011;64492;51.270;3.912;2022-12-07T01:07:48;1.95;;;0.85;;
75843;SDS011;64492;51.270;3.912;2022-12-07T01:10:15;2.05;;;0.85;;
75843;SDS011;64492;51.270;3.912;2022-12-07T01:12:42;2.08;;;1.20;;
75843;SDS011;64492;51.270;3.912;2022-12-07T01:15:08;1.75;;;0.80;;
75843;SDS011;64492;51.270;3.912;2022-12-07T01:17:35;1.92;;;0.90;;
75843;SDS011;64492;51.270;3.912;2022-12-07T01:20:04;3.25;;;1.10;;
75843;SDS011;64492;51.270;3.912;2022-12-07T01:22:31;1.38;;;0.80;;
75843;SDS011;64492;51.270;3.912;2022-12-07T01:25:02;1.88;;;0.80;;
75843;SDS011;64492;51.270;3.912;2022-12-07T01:27:29;1.25;;;0.70;;
75843;SDS011;64492;51.270;3.912;2022-12-07T01:29:56;2.47;;;0.98;;
75843;SDS011;64492;51.270;3.912;2022-12-07T01:32:22;3.72;;;1.10;;
75843;SDS011;64492;51.270;3.912;2022-12-07T01:34:49;1.85;;;1.00;;
75843;SDS011;64492;51.270;3.912;2022-12-07T01:37:17;1.98;;;0.75;;
75843;SDS011;64492;51.270;3.912;2022-12-07T01:39:43;2.00;;;1.00;;
75843;SDS011;64492;51.270;3.912;2022-12-07T01:42:10;2.83;;;1.10;;
75843;SDS011;64492;51.270;3.912;2022-12-07T01:47:37;1.90;;;1.02;;
75843;SDS011;64492;51.270;3.912;2022-12-07T01:50:03;2.15;;;1.05;;
75843;SDS011;64492;51.270;3.912;2022-12-07T01:52:32;1.65;;;0.98;;
75843;SDS011;64492;51.270;3.912;2022-12-07T01:55:00;1.98;;;0.90;;
75843;SDS011;64492;51.270;3.912;2022-12-07T01:57:29;2.42;;;0.80;;
75843;SDS011;64492;51.270;3.912;2022-12-07T01:59:56;3.55;;;1.02;;
75843;SDS011;64492;51.270;3.912;2022-12-07T02:02:25;2.72;;;1.10;;
75843;SDS011;64492;51.270;3.912;2022-12-07T02:04:52;2.00;;;0.90;;
75843;SDS011;64492;51.270;3.912;2022-12-07T02:07:19;2.58;;;1.17;;
75843;SDS011;64492;51.270;3.912;2022-12-07T02:09:48;2.85;;;1.05;;
75843;SDS011;64492;51.270;3.912;2022-12-07T02:12:15;1.30;;;0.90;;
75843;SDS011;64492;51.270;3.912;2022-12-07T02:14:41;1.85;;;0.60;;
75843;SDS011;64492;51.270;3.912;2022-12-07T02:17:10;2.55;;;1.10;;
75843;SDS011;64492;51.270;3.912;2022-12-07T02:22:51;2.38;;;1.00;;
75843;SDS011;64492;51.270;3.912;2022-12-07T02:25:30;2.00;;;0.73;;
75843;SDS011;64492;51.270;3.912;2022-12-07T02:28:07;2.53;;;1.02;;
75843;SDS011;64492;51.270;3.912;2022-12-07T02:30:42;1.80;;;0.98;;
75843;SDS011;64492;51.270;3.912;2022-12-07T02:33:11;1.48;;;0.65;;
75843;SDS011;64492;51.270;3.912;2022-12-07T02:35:41;2.10;;;0.88;;
75843;SDS011;64492;51.270;3.912;2022-12-07T02:38:12;2.50;;;0.82;;
75843;SDS011;64492;51.270;3.912;2022-12-07T02:40:41;2.03;;;0.73;;
75843;SDS011;64492;51.270;3.912;2022-12-07T02:43:12;1.90;;;0.90;;
75843;SDS011;64492;51.270;3.912;2022-12-07T02:45:42;1.38;;;0.57;;
75843;SDS011;64492;51.270;3.912;2022-12-07T02:48:10;2.05;;;0.90;;
75843;SDS011;64492;51.270;3.912;2022-12-07T02:50:38;1.83;;;0.90;;
75843;SDS011;64492;51.270;3.912;2022-12-07T02:53:05;1.83;;;1.00;;
75843;SDS011;64492;51.270;3.912;2022-12-07T02:55:33;2.65;;;0.80;;
75843;SDS011;64492;51.270;3.912;2022-12-07T02:58:06;1.80;;;0.68;;
75843;SDS011;64492;51.270;3.912;2022-12-07T03:00:43;2.22;;;1.10;;
75843;SDS011;64492;51.270;3.912;2022-12-07T03:03:15;1.17;;;0.70;;
75843;SDS011;64492;51.270;3.912;2022-12-07T03:05:49;2.78;;;1.02;;
75843;SDS011;64492;51.270;3.912;2022-12-07T03:08:23;2.20;;;0.82;;
75843;SDS011;64492;51.270;3.912;2022-12-07T03:10:56;2.33;;;0.63;;
75843;SDS011;64492;51.270;3.912;2022-12-07T03:13:25;1.65;;;0.90;;
75843;SDS011;64492;51.270;3.912;2022-12-07T03:15:57;1.83;;;0.75;;
75843;SDS011;64492;51.270;3.912;2022-12-07T03:18:27;1.70;;;0.95;;
75843;SDS011;64492;51.270;3.912;2022-12-07T03:20:57;1.83;;;0.75;;
75843;SDS011;64492;51.270;3.912;2022-12-07T03:23:26;2.53;;;0.95;;
75843;SDS011;64492;51.270;3.912;2022-12-07T03:25:55;2.78;;;0.95;;
75843;SDS011;64492;51.270;3.912;2022-12-07T03:28:24;2.05;;;1.00;;
75843;SDS011;64492;51.270;3.912;2022-12-07T03:30:54;4.22;;;1.63;;
75843;SDS011;64492;51.270;3.912;2022-12-07T03:33:25;2.70;;;1.00;;
75843;SDS011;64492;51.270;3.912;2022-12-07T03:35:57;2.00;;;0.90;;
75843;SDS011;64492;51.270;3.912;2022-12-07T03:38:27;1.75;;;0.85;;
75843;SDS011;64492;51.270;3.912;2022-12-07T03:40:57;2.42;;;1.00;;
75843;SDS011;64492;51.270;3.912;2022-12-07T03:43:27;2.58;;;1.23;;
75843;SDS011;64492;51.270;3.912;2022-12-07T03:45:58;2.50;;;1.00;;
75843;SDS011;64492;51.270;3.912;2022-12-07T03:48:31;2.10;;;0.82;;
75843;SDS011;64492;51.270;3.912;2022-12-07T03:51:00;1.88;;;0.88;;
75843;SDS011;64492;51.270;3.912;2022-12-07T03:53:31;3.38;;;1.10;;
75843;SDS011;64492;51.270;3.912;2022-12-07T03:56:01;2.25;;;1.20;;
75843;SDS011;64492;51.270;3.912;2022-12-07T03:58:28;2.05;;;0.90;;
75843;SDS011;64492;51.270;3.912;2022-12-07T04:00:57;2.03;;;1.10;;
75843;SDS011;64492;51.270;3.912;2022-12-07T04:03:24;4.55;;;1.00;;
75843;SDS011;64492;51.270;3.912;2022-12-07T04:05:50;3.13;;;1.13;;
75843;SDS011;64492;51.270;3.912;2022-12-07T04:08:17;2.28;;;1.20;;
75843;SDS011;64492;51.270;3.912;2022-12-07T04:10:43;2.17;;;0.93;;
75843;SDS011;64492;51.270;3.912;2022-12-07T04:13:10;3.42;;;1.45;;
75843;SDS011;64492;51.270;3.912;2022-12-07T04:15:36;1.55;;;0.73;;
75843;SDS011;64492;51.270;3.912;2022-12-07T04:18:04;2.10;;;0.98;;
75843;SDS011;64492;51.270;3.912;2022-12-07T04:20:33;2.33;;;1.00;;
75843;SDS011;64492;51.270;3.912;2022-12-07T04:23:00;1.85;;;0.90;;
75843;SDS011;64492;51.270;3.912;2022-12-07T04:25:28;2.03;;;1.02;;
75843;SDS011;64492;51.270;3.912;2022-12-07T04:27:56;2.50;;;1.10;;
75843;SDS011;64492;51.270;3.912;2022-12-07T04:30:23;2.90;;;1.00;;
75843;SDS011;64492;51.270;3.912;2022-12-07T04:32:49;1.88;;;1.02;;
75843;SDS011;64492;51.270;3.912;2022-12-07T04:35:17;1.60;;;0.90;;
75843;SDS011;64492;51.270;3.912;2022-12-07T04:37:43;1.90;;;1.13;;
75843;SDS011;64492;51.270;3.912;2022-12-07T04:40:10;1.70;;;0.80;;
75843;SDS011;64492;51.270;3.912;2022-12-07T04:42:39;1.83;;;0.90;;
75843;SDS011;64492;51.270;3.912;2022-12-07T04:45:06;2.08;;;1.00;;
75843;SDS011;64492;51.270;3.912;2022-12-07T04:47:33;2.65;;;1.20;;
75843;SDS011;64492;51.270;3.912;2022-12-07T04:50:00;2.17;;;0.93;;
75843;SDS011;64492;51.270;3.912;2022-12-07T04:52:27;1.60;;;0.70;;
75843;SDS011;64492;51.270;3.912;2022-12-07T04:54:54;1.35;;;0.82;;
75843;SDS011;64492;51.270;3.912;2022-12-07T04:57:20;4.18;;;0.85;;
75843;SDS011;64492;51.270;3.912;2022-12-07T04:59:47;1.75;;;0.80;;
75843;SDS011;64492;51.270;3.912;2022-12-07T05:02:13;1.98;;;1.40;;
75843;SDS011;64492;51.270;3.912;2022-12-07T05:04:40;1.98;;;0.90;;
75843;SDS011;64492;51.270;3.912;2022-12-07T05:07:06;1.27;;;0.90;;
75843;SDS011;64492;51.270;3.912;2022-12-07T05:09:34;2.63;;;1.13;;
75843;SDS011;64492;51.270;3.912;2022-12-07T05:12:01;2.15;;;1.05;;
75843;SDS011;64492;51.270;3.912;2022-12-07T05:14:27;1.55;;;0.80;;
75843;SDS011;64492;51.270;3.912;2022-12-07T05:16:53;3.35;;;1.02;;
75843;SDS011;64492;51.270;3.912;2022-12-07T05:19:20;2.60;;;0.73;;
75843;SDS011;64492;51.270;3.912;2022-12-07T05:21:47;1.85;;;0.85;;
75843;SDS011;64492;51.270;3.912;2022-12-07T05:24:14;2.00;;;0.75;;
75843;SDS011;64492;51.270;3.912;2022-12-07T05:26:43;2.15;;;1.10;;
75843;SDS011;64492;51.270;3.912;2022-12-07T05:31:36;2.25;;;0.98;;
75843;SDS011;64492;51.270;3.912;2022-12-07T05:34:03;2.53;;;0.88;;
75843;SDS011;64492;51.270;3.912;2022-12-07T05:36:29;1.35;;;0.68;;
75843;SDS011;64492;51.270;3.912;2022-12-07T05:38:57;1.90;;;0.90;;
75843;SDS011;64492;51.270;3.912;2022-12-07T05:41:23;1.42;;;0.65;;
75843;SDS011;64492;51.270;3.912;2022-12-07T05:44:08;1.60;;;0.90;;
75843;SDS011;64492;51.270;3.912;2022-12-07T05:46:35;2.13;;;0.90;;
75843;SDS011;64492;51.270;3.912;2022-12-07T05:49:02;1.70;;;0.80;;
75843;SDS011;64492;51.270;3.912;2022-12-07T05:51:28;1.27;;;0.70;;
75843;SDS011;64492;51.270;3.912;2022-12-07T05:53:55;1.60;;;0.70;;
75843;SDS011;64492;51.270;3.912;2022-12-07T05:56:22;2.20;;;0.80;;
75843;SDS011;64492;51.270;3.912;2022-12-07T05:58:49;2.03;;;0.90;;
75843;SDS011;64492;51.270;3.912;2022-12-07T06:01:34;0.73;;;0.60;;
75843;SDS011;64492;51.270;3.912;2022-12-07T06:04:01;1.75;;;0.88;;
75843;SDS011;64492;51.270;3.912;2022-12-07T06:06:27;2.65;;;1.15;;
75843;SDS011;64492;51.270;3.912;2022-12-07T06:08:54;1.55;;;0.70;;
75843;SDS011;64492;51.270;3.912;2022-12-07T06:11:20;1.52;;;0.65;;
75843;SDS011;64492;51.270;3.912;2022-12-07T06:14:04;1.98;;;0.85;;
75843;SDS011;64492;51.270;3.912;2022-12-07T06:16:31;2.47;;;0.95;;
75843;SDS011;64492;51.270;3.912;2022-12-07T06:18:59;2.80;;;1.35;;
75843;SDS011;64492;51.270;3.912;2022-12-07T06:21:25;3.53;;;1.60;;
75843;SDS011;64492;51.270;3.912;2022-12-07T06:23:52;10.95;;;3.03;;
75843;SDS011;64492;51.270;3.912;2022-12-07T06:26:19;22.63;;;7.25;;
75843;SDS011;64492;51.270;3.912;2022-12-07T06:28:45;16.92;;;5.38;;
75843;SDS011;64492;51.270;3.912;2022-12-07T06:31:12;15.05;;;4.55;;
75843;SDS011;64492;51.270;3.912;2022-12-07T06:33:38;16.35;;;4.30;;
75843;SDS011;64492;51.270;3.912;2022-12-07T06:36:06;13.82;;;4.25;;
75843;SDS011;64492;51.270;3.912;2022-12-07T06:38:33;12.13;;;3.38;;
75843;SDS011;64492;51.270;3.912;2022-12-07T06:41:00;12.40;;;3.80;;
75843;SDS011;64492;51.270;3.912;2022-12-07T06:43:26;11.77;;;3.25;;
75843;SDS011;64492;51.270;3.912;2022-12-07T06:45:53;13.05;;;3.45;;
75843;SDS011;64492;51.270;3.912;2022-12-07T06:48:19;8.70;;;2.85;;
75843;SDS011;64492;51.270;3.912;2022-12-07T06:50:46;7.82;;;2.78;;
75843;SDS011;64492;51.270;3.912;2022-12-07T06:53:14;9.68;;;2.65;;
75843;SDS011;64492;51.270;3.912;2022-12-07T06:55:41;6.35;;;2.30;;
75843;SDS011;64492;51.270;3.912;2022-12-07T06:58:07;10.27;;;3.13;;
75843;SDS011;64492;51.270;3.912;2022-12-07T07:00:34;8.07;;;2.88;;
75843;SDS011;64492;51.270;3.912;2022-12-07T07:03:00;5.57;;;2.20;;
75843;SDS011;64492;51.270;3.912;2022-12-07T07:05:27;9.07;;;2.40;;
75843;SDS011;64492;51.270;3.912;2022-12-07T07:07:53;8.35;;;2.30;;
75843;SDS011;64492;51.270;3.912;2022-12-07T07:10:21;6.00;;;2.30;;
75843;SDS011;64492;51.270;3.912;2022-12-07T07:12:48;7.95;;;2.20;;
75843;SDS011;64492;51.270;3.912;2022-12-07T07:15:14;6.85;;;2.17;;
75843;SDS011;64492;51.270;3.912;2022-12-07T07:17:42;5.85;;;2.03;;
75843;SDS011;64492;51.270;3.912;2022-12-07T07:20:09;4.35;;;1.85;;
75843;SDS011;64492;51.270;3.912;2022-12-07T07:22:36;5.78;;;2.35;;
75843;SDS011;64492;51.270;3.912;2022-12-07T07:25:03;5.60;;;2.58;;
75843;SDS011;64492;51.270;3.912;2022-12-07T07:27:31;5.68;;;1.95;;
75843;SDS011;64492;51.270;3.912;2022-12-07T07:29:57;6.60;;;1.98;;
75843;SDS011;64492;51.270;3.912;2022-12-07T07:32:24;4.55;;;1.58;;
75843;SDS011;64492;51.270;3.912;2022-12-07T07:34:50;6.05;;;1.95;;
75843;SDS011;64492;51.270;3.912;2022-12-07T07:37:17;4.45;;;1.80;;
75843;SDS011;64492;51.270;3.912;2022-12-07T07:39:43;6.50;;;1.75;;
75843;SDS011;64492;51.270;3.912;2022-12-07T07:42:10;5.38;;;2.05;;
75843;SDS011;64492;51.270;3.912;2022-12-07T07:44:38;4.68;;;1.98;;
75843;SDS011;64492;51.270;3.912;2022-12-07T07:47:04;7.93;;;1.80;;
75843;SDS011;64492;51.270;3.912;2022-12-07T07:49:31;4.60;;;2.00;;
75843;SDS011;64492;51.270;3.912;2022-12-07T07:51:57;5.13;;;1.85;;
75843;SDS011;64492;51.270;3.912;2022-12-07T07:54:24;4.45;;;1.95;;
75843;SDS011;64492;51.270;3.912;2022-12-07T07:56:51;3.83;;;1.60;;
75843;SDS011;64492;51.270;3.912;2022-12-07T07:59:18;4.85;;;1.98;;
75843;SDS011;64492;51.270;3.912;2022-12-07T08:01:46;5.07;;;1.60;;
75843;SDS011;64492;51.270;3.912;2022-12-07T08:04:12;5.85;;;1.88;;
75843;SDS011;64492;51.270;3.912;2022-12-07T08:06:39;5.50;;;1.85;;
75843;SDS011;64492;51.270;3.912;2022-12-07T08:09:07;4.63;;;1.55;;
75843;SDS011;64492;51.270;3.912;2022-12-07T08:11:34;4.15;;;1.60;;
75843;SDS011;64492;51.270;3.912;2022-12-07T08:14:01;4.18;;;1.30;;
75843;SDS011;64492;51.270;3.912;2022-12-07T08:16:27;3.95;;;1.50;;
75843;SDS011;64492;51.270;3.912;2022-12-07T08:18:55;4.72;;;1.52;;
75843;SDS011;64492;51.270;3.912;2022-12-07T08:21:22;4.32;;;1.38;;
75843;SDS011;64492;51.270;3.912;2022-12-07T08:23:48;3.30;;;1.52;;
75843;SDS011;64492;51.270;3.912;2022-12-07T08:26:15;4.68;;;1.45;;
75843;SDS011;64492;51.270;3.912;2022-12-07T08:28:42;6.07;;;1.60;;
75843;SDS011;64492;51.270;3.912;2022-12-07T08:31:10;5.18;;;1.50;;
75843;SDS011;64492;51.270;3.912;2022-12-07T08:33:38;3.63;;;1.58;;
75843;SDS011;64492;51.270;3.912;2022-12-07T08:36:07;4.65;;;1.52;;
75843;SDS011;64492;51.270;3.912;2022-12-07T08:38:35;3.80;;;1.65;;
75843;SDS011;64492;51.270;3.912;2022-12-07T08:41:02;3.75;;;1.42;;
75843;SDS011;64492;51.270;3.912;2022-12-07T08:43:28;2.88;;;1.27;;
75843;SDS011;64492;51.270;3.912;2022-12-07T08:45:56;5.38;;;2.00;;
75843;SDS011;64492;51.270;3.912;2022-12-07T08:48:29;5.05;;;1.90;;
75843;SDS011;64492;51.270;3.912;2022-12-07T08:50:55;3.75;;;1.60;;
75843;SDS011;64492;51.270;3.912;2022-12-07T08:53:23;4.13;;;1.67;;
75843;SDS011;64492;51.270;3.912;2022-12-07T08:55:50;4.68;;;1.70;;
75843;SDS011;64492;51.270;3.912;2022-12-07T08:58:17;3.42;;;1.88;;
75843;SDS011;64492;51.270;3.912;2022-12-07T09:00:43;4.22;;;1.70;;
75843;SDS011;64492;51.270;3.912;2022-12-07T09:03:10;6.18;;;1.83;;
75843;SDS011;64492;51.270;3.912;2022-12-07T09:05:36;3.55;;;1.90;;
75843;SDS011;64492;51.270;3.912;2022-12-07T09:08:03;5.78;;;2.15;;
75843;SDS011;64492;51.270;3.912;2022-12-07T09:10:31;4.13;;;1.40;;
75843;SDS011;64492;51.270;3.912;2022-12-07T09:12:58;4.30;;;1.58;;
75843;SDS011;64492;51.270;3.912;2022-12-07T09:15:25;3.75;;;1.80;;
75843;SDS011;64492;51.270;3.912;2022-12-07T09:17:52;4.03;;;1.95;;
75843;SDS011;64492;51.270;3.912;2022-12-07T09:20:19;4.40;;;1.85;;
75843;SDS011;64492;51.270;3.912;2022-12-07T09:22:45;3.97;;;1.63;;
75843;SDS011;64492;51.270;3.912;2022-12-07T09:25:12;4.78;;;1.50;;
75843;SDS011;64492;51.270;3.912;2022-12-07T09:27:40;3.50;;;1.40;;
75843;SDS011;64492;51.270;3.912;2022-12-07T09:32:33;4.03;;;1.58;;
75843;SDS011;64492;51.270;3.912;2022-12-07T09:35:00;4.05;;;1.50;;
75843;SDS011;64492;51.270;3.912;2022-12-07T09:37:26;4.55;;;1.60;;
75843;SDS011;64492;51.270;3.912;2022-12-07T09:39:53;3.60;;;1.58;;
75843;SDS011;64492;51.270;3.912;2022-12-07T09:42:25;3.65;;;1.45;;
75843;SDS011;64492;51.270;3.912;2022-12-07T09:44:55;3.60;;;1.50;;
75843;SDS011;64492;51.270;3.912;2022-12-07T09:47:21;2.53;;;1.20;;
75843;SDS011;64492;51.270;3.912;2022-12-07T09:49:48;3.90;;;1.40;;
75843;SDS011;64492;51.270;3.912;2022-12-07T09:52:17;4.00;;;1.45;;
75843;SDS011;64492;51.270;3.912;2022-12-07T09:54:45;2.92;;;1.35;;
75843;SDS011;64492;51.270;3.912;2022-12-07T09:57:12;4.40;;;1.58;;
75843;SDS011;64492;51.270;3.912;2022-12-07T09:59:39;3.70;;;1.60;;
75843;SDS011;64492;51.270;3.912;2022-12-07T10:02:21;3.20;;;1.25;;
75843;SDS011;64492;51.270;3.912;2022-12-07T10:04:51;4.53;;;1.52;;
75843;SDS011;64492;51.270;3.912;2022-12-07T10:07:18;2.83;;;1.25;;
75843;SDS011;64492;51.270;3.912;2022-12-07T10:09:45;1.98;;;1.20;;
75843;SDS011;64492;51.270;3.912;2022-12-07T10:12:11;5.55;;;1.67;;
75843;SDS011;64492;51.270;3.912;2022-12-07T10:14:39;3.10;;;1.35;;
75843;SDS011;64492;51.270;3.912;2022-12-07T10:20:11;7.82;;;1.52;;
75843;SDS011;64492;51.270;3.912;2022-12-07T10:22:52;2.25;;;1.10;;
75843;SDS011;64492;51.270;3.912;2022-12-07T10:25:21;3.65;;;1.30;;
75843;SDS011;64492;51.270;3.912;2022-12-07T10:27:57;3.17;;;1.40;;
75843;SDS011;64492;51.270;3.912;2022-12-07T10:30:24;3.45;;;1.45;;
75843;SDS011;64492;51.270;3.912;2022-12-07T10:32:52;4.43;;;1.80;;
75843;SDS011;64492;51.270;3.912;2022-12-07T10:35:19;3.80;;;1.40;;
75843;SDS011;64492;51.270;3.912;2022-12-07T10:37:48;4.53;;;1.40;;
75843;SDS011;64492;51.270;3.912;2022-12-07T10:40:26;3.70;;;1.40;;
75843;SDS011;64492;51.270;3.912;2022-12-07T10:43:01;3.75;;;1.50;;
75843;SDS011;64492;51.270;3.912;2022-12-07T10:45:32;2.83;;;1.08;;
75843;SDS011;64492;51.270;3.912;2022-12-07T10:48:02;2.65;;;1.38;;
75843;SDS011;64492;51.270;3.912;2022-12-07T10:53:28;3.17;;;1.50;;
75843;SDS011;64492;51.270;3.912;2022-12-07T10:56:15;3.17;;;1.50;;
75843;SDS011;64492;51.270;3.912;2022-12-07T10:58:59;3.35;;;1.40;;
75843;SDS011;64492;51.270;3.912;2022-12-07T11:01:31;4.25;;;1.50;;
75843;SDS011;64492;51.270;3.912;2022-12-07T11:04:17;4.43;;;1.60;;
75843;SDS011;64492;51.270;3.912;2022-12-07T11:06:49;3.55;;;1.40;;
75843;SDS011;64492;51.270;3.912;2022-12-07T11:12:16;3.05;;;1.15;;
75843;SDS011;64492;51.270;3.912;2022-12-07T11:14:51;3.95;;;1.27;;
75843;SDS011;64492;51.270;3.912;2022-12-07T11:17:22;3.60;;;1.40;;
75843;SDS011;64492;51.270;3.912;2022-12-07T11:19:59;3.50;;;1.20;;
75843;SDS011;64492;51.270;3.912;2022-12-07T11:22:30;2.83;;;1.38;;
75843;SDS011;64492;51.270;3.912;2022-12-07T11:25:03;3.03;;;1.85;;
75843;SDS011;64492;51.270;3.912;2022-12-07T11:27:43;3.53;;;1.33;;
75843;SDS011;64492;51.270;3.912;2022-12-07T11:30:14;2.45;;;1.10;;
75843;SDS011;64492;51.270;3.912;2022-12-07T11:33:09;2.15;;;1.10;;
75843;SDS011;64492;51.270;3.912;2022-12-07T11:35:43;2.22;;;1.10;;
75843;SDS011;64492;51.270;3.912;2022-12-07T11:38:14;2.88;;;1.20;;
75843;SDS011;64492;51.270;3.912;2022-12-07T11:40:43;1.98;;;1.10;;
75843;SDS011;64492;51.270;3.912;2022-12-07T11:43:13;1.88;;;1.05;;
75843;SDS011;64492;51.270;3.912;2022-12-07T11:45:44;2.08;;;1.13;;
75843;SDS011;64492;51.270;3.912;2022-12-07T11:48:14;2.65;;;1.10;;
75843;SDS011;64492;51.270;3.912;2022-12-07T11:50:47;2.75;;;1.10;;
75843;SDS011;64492;51.270;3.912;2022-12-07T11:53:17;2.65;;;1.10;;
75843;SDS011;64492;51.270;3.912;2022-12-07T11:55:47;3.40;;;1.40;;
75843;SDS011;64492;51.270;3.912;2022-12-07T11:58:22;2.30;;;1.33;;
75843;SDS011;64492;51.270;3.912;2022-12-07T12:01:01;3.65;;;1.30;;
75843;SDS011;64492;51.270;3.912;2022-12-07T12:03:35;2.20;;;1.10;;
75843;SDS011;64492;51.270;3.912;2022-12-07T12:06:06;2.15;;;1.13;;
75843;SDS011;64492;51.270;3.912;2022-12-07T12:08:33;1.88;;;0.82;;
75843;SDS011;64492;51.270;3.912;2022-12-07T12:11:05;2.47;;;1.20;;
75843;SDS011;64492;51.270;3.912;2022-12-07T12:13:48;4.43;;;1.10;;
75843;SDS011;64492;51.270;3.912;2022-12-07T12:16:35;2.20;;;0.90;;
75843;SDS011;64492;51.270;3.912;2022-12-07T12:19:25;3.28;;;1.20;;
75843;SDS011;64492;51.270;3.912;2022-12-07T12:22:01;1.63;;;0.85;;
75843;SDS011;64492;51.270;3.912;2022-12-07T12:24:32;1.95;;;1.00;;
75843;SDS011;64492;51.270;3.912;2022-12-07T12:27:02;2.53;;;1.08;;
75843;SDS011;64492;51.270;3.912;2022-12-07T12:29:31;2.53;;;1.17;;
75843;SDS011;64492;51.270;3.912;2022-12-07T12:32:06;1.95;;;1.10;;
75843;SDS011;64492;51.270;3.912;2022-12-07T12:34:39;2.40;;;1.20;;
75843;SDS011;64492;51.270;3.912;2022-12-07T12:37:20;1.65;;;0.82;;
75843;SDS011;64492;51.270;3.912;2022-12-07T12:55:15;2.17;;;1.08;;
75843;SDS011;64492;51.270;3.912;2022-12-07T12:57:46;3.30;;;1.27;;
75843;SDS011;64492;51.270;3.912;2022-12-07T13:00:17;1.30;;;0.75;;
75843;SDS011;64492;51.270;3.912;2022-12-07T13:02:48;1.15;;;0.80;;
75843;SDS011;64492;51.270;3.912;2022-12-07T13:05:16;1.88;;;0.80;;
75843;SDS011;64492;51.270;3.912;2022-12-07T13:07:52;1.90;;;0.80;;
75843;SDS011;64492;51.270;3.912;2022-12-07T13:10:24;2.58;;;0.80;;
75843;SDS011;64492;51.270;3.912;2022-12-07T13:13:03;2.83;;;1.10;;
75843;SDS011;64492;51.270;3.912;2022-12-07T13:15:32;2.38;;;0.95;;
75843;SDS011;64492;51.270;3.912;2022-12-07T13:18:04;2.88;;;1.15;;
75843;SDS011;64492;51.270;3.912;2022-12-07T13:20:49;1.90;;;0.90;;
75843;SDS011;64492;51.270;3.912;2022-12-07T13:23:21;1.45;;;0.88;;
75843;SDS011;64492;51.270;3.912;2022-12-07T13:26:01;1.95;;;0.70;;
75843;SDS011;64492;51.270;3.912;2022-12-07T13:28:33;1.65;;;0.85;;
75843;SDS011;64492;51.270;3.912;2022-12-07T13:31:14;1.02;;;0.60;;
75843;SDS011;64492;51.270;3.912;2022-12-07T13:33:45;3.40;;;1.35;;
75843;SDS011;64492;51.270;3.912;2022-12-07T13:36:16;2.05;;;0.90;;
75843;SDS011;64492;51.270;3.912;2022-12-07T13:38:48;2.75;;;1.10;;
75843;SDS011;64492;51.270;3.912;2022-12-07T13:41:18;1.60;;;0.73;;
75843;SDS011;64492;51.270;3.912;2022-12-07T13:43:48;2.65;;;0.90;;
75843;SDS011;64492;51.270;3.912;2022-12-07T13:46:17;2.25;;;0.90;;
75843;SDS011;64492;51.270;3.912;2022-12-07T13:48:45;2.90;;;1.00;;
75843;SDS011;64492;51.270;3.912;2022-12-07T13:51:17;1.92;;;0.82;;
75843;SDS011;64492;51.270;3.912;2022-12-07T13:53:49;1.23;;;0.70;;
75843;SDS011;64492;51.270;3.912;2022-12-07T13:56:17;2.38;;;0.98;;
75843;SDS011;64492;51.270;3.912;2022-12-07T13:58:44;1.70;;;0.90;;
75843;SDS011;64492;51.270;3.912;2022-12-07T14:01:11;1.83;;;0.88;;
75843;SDS011;64492;51.270;3.912;2022-12-07T14:03:38;1.73;;;0.77;;
75843;SDS011;64492;51.270;3.912;2022-12-07T14:06:07;1.50;;;0.80;;
75843;SDS011;64492;51.270;3.912;2022-12-07T14:08:39;1.88;;;0.85;;
75843;SDS011;64492;51.270;3.912;2022-12-07T14:11:12;2.03;;;1.13;;
75843;SDS011;64492;51.270;3.912;2022-12-07T14:16:18;2.10;;;0.70;;
75843;SDS011;64492;51.270;3.912;2022-12-07T14:18:50;3.00;;;1.17;;
75843;SDS011;64492;51.270;3.912;2022-12-07T14:21:18;2.35;;;0.90;;
75843;SDS011;64492;51.270;3.912;2022-12-07T14:24:02;3.38;;;1.50;;
75843;SDS011;64492;51.270;3.912;2022-12-07T14:26:34;2.33;;;1.15;;
75843;SDS011;64492;51.270;3.912;2022-12-07T14:31:46;2.95;;;1.10;;
75843;SDS011;64492;51.270;3.912;2022-12-07T14:34:13;2.05;;;1.02;;
75843;SDS011;64492;51.270;3.912;2022-12-07T14:36:39;2.72;;;0.93;;
75843;SDS011;64492;51.270;3.912;2022-12-07T14:39:06;3.13;;;0.90;;
75843;SDS011;64492;51.270;3.912;2022-12-07T14:41:32;1.70;;;0.73;;
75843;SDS011;64492;51.270;3.912;2022-12-07T14:44:17;1.25;;;0.68;;
75843;SDS011;64492;51.270;3.912;2022-12-07T14:46:46;1.52;;;0.70;;
75843;SDS011;64492;51.270;3.912;2022-12-07T14:49:13;2.92;;;0.75;;
75843;SDS011;64492;51.270;3.912;2022-12-07T14:51:40;2.25;;;0.80;;
75843;SDS011;64492;51.270;3.912;2022-12-07T14:54:07;2.88;;;0.85;;
75843;SDS011;64492;51.270;3.912;2022-12-07T14:56:39;2.50;;;0.95;;
75843;SDS011;64492;51.270;3.912;2022-12-07T14:59:06;2.47;;;0.80;;
75843;SDS011;64492;51.270;3.912;2022-12-07T15:01:34;2.67;;;1.02;;
75843;SDS011;64492;51.270;3.912;2022-12-07T15:04:01;1.80;;;0.90;;
75843;SDS011;64492;51.270;3.912;2022-12-07T15:06:27;0.73;;;0.50;;
75843;SDS011;64492;51.270;3.912;2022-12-07T15:08:54;2.42;;;1.10;;
75843;SDS011;64492;51.270;3.912;2022-12-07T15:11:21;3.10;;;0.85;;
75843;SDS011;64492;51.270;3.912;2022-12-07T15:13:47;2.08;;;1.30;;
75843;SDS011;64492;51.270;3.912;2022-12-07T15:16:31;2.15;;;1.10;;
75843;SDS011;64492;51.270;3.912;2022-12-07T15:18:59;2.05;;;0.98;;
75843;SDS011;64492;51.270;3.912;2022-12-07T15:21:29;1.52;;;0.80;;
75843;SDS011;64492;51.270;3.912;2022-12-07T15:23:55;1.42;;;0.80;;
75843;SDS011;64492;51.270;3.912;2022-12-07T15:26:25;2.00;;;0.90;;
75843;SDS011;64492;51.270;3.912;2022-12-07T15:28:54;1.98;;;0.90;;
75843;SDS011;64492;51.270;3.912;2022-12-07T15:31:20;3.13;;;1.30;;
75843;SDS011;64492;51.270;3.912;2022-12-07T15:33:47;1.63;;;0.88;;
75843;SDS011;64492;51.270;3.912;2022-12-07T15:36:18;1.90;;;0.70;;
75843;SDS011;64492;51.270;3.912;2022-12-07T15:38:46;1.95;;;1.00;;
75843;SDS011;64492;51.270;3.912;2022-12-07T15:41:12;1.92;;;0.93;;